createdAt,value
2022-12-22T00:02:15.316Z,8.40
2022-12-22T00:05:26.329Z,8.40
2022-12-22T00:08:31.835Z,8.40
2022-12-22T00:11:37.798Z,8.40
2022-12-22T00:14:43.255Z,8.30
2022-12-22T00:17:48.826Z,8.50
2022-12-22T00:20:55.662Z,8.40
2022-12-22T00:24:01.212Z,8.40
2022-12-22T00:27:06.684Z,8.40
2022-12-22T00:30:12.211Z,8.40
2022-12-22T00:33:17.827Z,8.40
2022-12-22T00:36:26.382Z,8.50
2022-12-22T00:39:32.004Z,8.50
2022-12-22T00:42:37.564Z,8.50
2022-12-22T00:45:43.070Z,8.50
2022-12-22T00:48:48.670Z,8.60
2022-12-22T00:51:55.474Z,8.50
2022-12-22T00:55:00.946Z,8.40
2022-12-22T00:58:06.600Z,8.50
2022-12-22T01:01:12.109Z,8.60
2022-12-22T01:04:17.672Z,8.60
2022-12-22T01:07:24.399Z,8.70
2022-12-22T01:10:31.454Z,8.70
2022-12-22T01:13:36.838Z,8.60
2022-12-22T01:16:42.353Z,8.60
2022-12-22T01:19:47.791Z,8.60
2022-12-22T01:22:54.583Z,8.70
2022-12-22T01:26:00.179Z,8.70
2022-12-22T01:29:05.750Z,8.70
2022-12-22T01:32:11.288Z,8.70
2022-12-22T01:35:16.850Z,8.70
2022-12-22T01:38:23.768Z,8.80
2022-12-22T01:41:38.885Z,8.80
2022-12-22T01:44:44.434Z,8.70
2022-12-22T01:47:51.601Z,8.70
2022-12-22T01:50:57.087Z,8.80
2022-12-22T01:54:03.835Z,8.80
2022-12-22T01:57:10.086Z,8.80
2022-12-22T02:00:15.544Z,8.80
2022-12-22T02:03:21.004Z,8.80
2022-12-22T02:06:33.198Z,8.80
2022-12-22T02:09:45.855Z,8.80
2022-12-22T02:12:57.280Z,8.90
2022-12-22T02:16:07.276Z,8.90
2022-12-22T02:19:16.417Z,8.90
2022-12-22T02:22:27.077Z,8.90
2022-12-22T02:25:35.501Z,9.00
2022-12-22T02:28:42.259Z,8.90
2022-12-22T02:31:52.272Z,9.00
2022-12-22T02:34:57.716Z,9.00
2022-12-22T02:38:05.267Z,9.00
2022-12-22T02:41:16.273Z,9.00
2022-12-22T02:44:34.443Z,8.90
2022-12-22T02:47:47.894Z,9.00
2022-12-22T02:50:55.426Z,9.00
2022-12-22T02:54:01.071Z,8.90
2022-12-22T02:57:06.644Z,9.00
2022-12-22T03:00:13.465Z,9.00
2022-12-22T03:03:19.270Z,9.00
2022-12-22T03:06:25.024Z,9.00
2022-12-22T03:09:30.497Z,9.10
2022-12-22T03:12:35.869Z,9.10
2022-12-22T03:15:42.797Z,9.10
2022-12-22T03:18:48.195Z,9.10
2022-12-22T03:21:53.689Z,9.10
2022-12-22T03:24:59.270Z,9.10
2022-12-22T03:27:47.099Z,9.20
2022-12-22T03:30:36.704Z,9.10
2022-12-22T03:33:24.771Z,9.20
2022-12-22T03:36:12.767Z,9.10
2022-12-22T03:39:01.046Z,9.20
2022-12-22T03:42:11.949Z,9.20
2022-12-22T03:45:17.506Z,9.20
2022-12-22T03:48:06.901Z,9.20
2022-12-22T03:50:54.729Z,9.20
2022-12-22T03:53:42.542Z,9.20
2022-12-22T03:56:30.755Z,9.20
2022-12-22T03:59:18.845Z,9.30
2022-12-22T04:02:07.429Z,9.30
2022-12-22T04:04:56.800Z,9.30
2022-12-22T04:07:44.656Z,9.30
2022-12-22T04:10:50.243Z,9.30
2022-12-22T04:13:38.076Z,9.30
2022-12-22T04:16:26.037Z,9.30
2022-12-22T04:19:13.911Z,9.30
2022-12-22T04:22:03.169Z,9.30
2022-12-22T04:24:50.977Z,9.30
2022-12-22T04:27:38.778Z,9.30
2022-12-22T04:30:26.820Z,9.30
2022-12-22T04:33:14.699Z,9.30
2022-12-22T04:36:02.549Z,9.30
2022-12-22T04:38:51.742Z,9.30
2022-12-22T04:41:39.580Z,9.30
2022-12-22T04:44:27.438Z,9.30
2022-12-22T04:47:15.251Z,9.30
2022-12-22T04:50:03.119Z,9.30
2022-12-22T04:52:51.049Z,9.30
2022-12-22T04:55:40.207Z,9.30
2022-12-22T04:58:28.033Z,9.30
2022-12-22T05:01:16.603Z,9.30
2022-12-22T05:04:04.671Z,9.30
2022-12-22T05:06:52.500Z,9.30
2022-12-22T05:09:40.487Z,9.30
2022-12-22T05:12:47.346Z,9.30
2022-12-22T05:15:36.376Z,9.30
2022-12-22T05:18:24.169Z,9.40
2022-12-22T05:21:13.694Z,9.40
2022-12-22T05:24:01.577Z,9.40
2022-12-22T05:26:49.433Z,9.40
2022-12-22T05:29:38.626Z,9.40
2022-12-22T05:32:26.420Z,9.40
2022-12-22T05:35:14.250Z,9.40
2022-12-22T05:38:02.122Z,9.40
2022-12-22T05:40:50.299Z,9.40
2022-12-22T05:43:38.404Z,9.40
2022-12-22T05:46:27.655Z,9.40
2022-12-22T05:49:15.478Z,9.40
2022-12-22T05:52:03.910Z,9.40
2022-12-22T05:54:51.703Z,9.40
2022-12-22T05:57:39.652Z,9.40
2022-12-22T06:00:27.705Z,9.40
2022-12-22T06:03:17.276Z,9.40
2022-12-22T06:06:05.449Z,9.40
2022-12-22T06:08:53.318Z,9.40
2022-12-22T06:11:41.153Z,9.50
2022-12-22T06:14:28.935Z,9.50
2022-12-22T06:17:16.835Z,9.50
2022-12-22T06:20:06.558Z,9.50
2022-12-22T06:22:54.395Z,9.50
2022-12-22T06:25:42.239Z,9.40
2022-12-22T06:28:30.394Z,9.50
2022-12-22T06:31:18.235Z,9.40
2022-12-22T06:34:06.065Z,9.50
2022-12-22T06:36:55.576Z,9.50
2022-12-22T06:39:43.378Z,9.50
2022-12-22T06:42:49.083Z,9.50
2022-12-22T06:45:37.183Z,9.50
2022-12-22T06:48:25.051Z,9.50
2022-12-22T06:51:12.937Z,9.50
2022-12-22T06:54:02.107Z,9.50
2022-12-22T06:56:50.019Z,9.50
2022-12-22T06:59:40.861Z,9.50
2022-12-22T07:02:28.833Z,9.50
2022-12-22T07:05:17.099Z,9.60
2022-12-22T07:08:08.734Z,9.60
2022-12-22T07:11:01.515Z,9.60
2022-12-22T07:13:49.378Z,9.60
2022-12-22T07:16:37.351Z,9.70
2022-12-22T07:19:25.236Z,9.60
2022-12-22T07:22:13.061Z,9.60
2022-12-22T07:25:00.871Z,9.60
2022-12-22T07:27:50.061Z,9.70
2022-12-22T07:30:37.875Z,9.60
2022-12-22T07:33:25.748Z,9.60
2022-12-22T07:36:15.059Z,9.70
2022-12-22T07:39:02.834Z,9.70
2022-12-22T07:42:08.319Z,9.70
2022-12-22T07:44:57.453Z,9.70
2022-12-22T07:47:45.735Z,9.70
2022-12-22T07:50:32.938Z,9.70
2022-12-22T07:53:20.742Z,9.80
2022-12-22T07:56:08.796Z,9.80
2022-12-22T07:58:56.608Z,9.80
2022-12-22T08:01:46.076Z,9.90
2022-12-22T08:04:34.028Z,9.80
2022-12-22T08:07:21.952Z,9.80
2022-12-22T08:10:10.395Z,9.90
2022-12-22T08:12:58.485Z,9.90
2022-12-22T08:15:46.455Z,9.90
2022-12-22T08:18:36.573Z,9.90
2022-12-22T08:21:24.577Z,9.90
2022-12-22T08:24:12.411Z,10.00
2022-12-22T08:27:02.595Z,10.00
2022-12-22T08:29:52.325Z,10.00
2022-12-22T08:32:41.142Z,10.00
2022-12-22T08:35:30.351Z,10.00
2022-12-22T08:38:18.314Z,10.00
2022-12-22T08:41:06.445Z,10.00
2022-12-22T08:43:54.395Z,10.00
2022-12-22T08:46:42.310Z,10.00
2022-12-22T08:49:30.143Z,10.10
2022-12-22T08:52:19.613Z,10.10
2022-12-22T08:55:08.041Z,10.10
2022-12-22T08:57:56.471Z,10.00
2022-12-22T09:00:44.828Z,9.90
2022-12-22T09:03:33.062Z,9.90
2022-12-22T09:06:26.948Z,9.90
2022-12-22T09:09:17.855Z,9.80
2022-12-22T09:12:06.481Z,9.80
2022-12-22T09:14:54.310Z,9.80
2022-12-22T09:17:44.629Z,9.80
2022-12-22T09:20:32.504Z,9.80
2022-12-22T09:23:20.316Z,9.90
2022-12-22T09:26:10.053Z,9.90
2022-12-22T09:28:57.928Z,9.90
2022-12-22T09:31:45.773Z,10.00
2022-12-22T09:34:33.770Z,10.00
2022-12-22T09:37:21.610Z,10.10
2022-12-22T09:40:10.171Z,10.10
2022-12-22T09:43:00.121Z,10.20
2022-12-22T09:45:47.971Z,10.30
2022-12-22T09:48:37.062Z,10.30
2022-12-22T09:51:27.355Z,10.40
2022-12-22T09:54:16.650Z,10.40
2022-12-22T09:57:12.930Z,10.40
2022-12-22T10:00:08.602Z,10.50
2022-12-22T10:03:01.456Z,10.50
2022-12-22T10:05:52.393Z,10.50
2022-12-22T10:08:41.807Z,10.50
2022-12-22T10:11:29.670Z,10.60
2022-12-22T10:14:17.484Z,10.60
2022-12-22T10:17:23.943Z,10.60
2022-12-22T10:20:22.817Z,10.60
2022-12-22T10:23:16.151Z,10.50
2022-12-22T10:29:15.010Z,10.50
2022-12-22T10:32:03.782Z,10.50
2022-12-22T10:34:59.996Z,10.40
2022-12-22T10:37:49.171Z,10.40
2022-12-22T10:40:43.033Z,10.40
2022-12-22T10:43:32.359Z,10.30
2022-12-22T10:46:21.397Z,10.40
2022-12-22T10:49:11.219Z,10.40
2022-12-22T10:52:11.494Z,10.40
2022-12-22T10:55:14.263Z,10.40
2022-12-22T10:58:15.732Z,10.30
2022-12-22T11:01:05.481Z,10.30
2022-12-22T11:03:53.556Z,10.30
2022-12-22T11:06:42.265Z,10.20
2022-12-22T11:09:34.998Z,10.20
2022-12-22T11:12:27.692Z,10.30
2022-12-22T11:15:24.844Z,10.30
2022-12-22T11:18:19.683Z,10.30
2022-12-22T11:21:10.853Z,10.30
2022-12-22T11:24:02.852Z,10.30
2022-12-22T11:26:55.672Z,10.30
2022-12-22T11:30:01.586Z,10.30
2022-12-22T11:33:04.031Z,10.30
2022-12-22T11:35:59.249Z,10.30
2022-12-22T11:38:49.769Z,10.30
2022-12-22T11:41:48.067Z,10.30
2022-12-22T11:44:39.238Z,10.20
2022-12-22T11:47:31.451Z,10.20
2022-12-22T11:51:02.326Z,10.20
2022-12-22T11:53:54.839Z,10.20
2022-12-22T11:56:45.272Z,10.20
2022-12-22T11:59:38.984Z,10.30
2022-12-22T12:02:34.242Z,10.30
2022-12-22T12:05:27.870Z,10.40
2022-12-22T12:08:21.846Z,10.40
2022-12-22T12:11:18.488Z,10.40
2022-12-22T12:14:11.763Z,10.40
2022-12-22T12:17:00.067Z,10.50
2022-12-22T12:19:55.290Z,10.40
2022-12-22T12:22:50.813Z,10.50
2022-12-22T12:25:42.299Z,10.40
2022-12-22T12:28:36.244Z,10.40
2022-12-22T12:31:30.037Z,10.40
2022-12-22T12:34:19.189Z,10.30
2022-12-22T12:37:09.584Z,10.30
2022-12-22T12:40:04.652Z,10.30
2022-12-22T12:42:54.859Z,10.30
2022-12-22T12:45:43.463Z,10.30
2022-12-22T12:48:40.335Z,10.20
2022-12-22T12:51:47.868Z,10.20
2022-12-22T12:54:38.169Z,10.20
2022-12-22T12:57:30.912Z,10.20
2022-12-22T13:00:33.923Z,10.20
2022-12-22T13:06:52.071Z,10.10
2022-12-22T13:10:00.023Z,10.00
2022-12-22T13:12:52.052Z,10.10
2022-12-22T13:15:41.323Z,10.00
2022-12-22T13:18:47.462Z,10.10
2022-12-22T13:21:53.057Z,10.10
2022-12-22T13:24:49.025Z,10.20
2022-12-22T13:27:37.488Z,10.20
2022-12-22T13:30:27.780Z,10.30
2022-12-22T13:33:17.596Z,10.40
2022-12-22T13:36:06.296Z,10.30
2022-12-22T13:38:59.059Z,10.40
2022-12-22T13:41:48.441Z,10.40
2022-12-22T13:44:36.376Z,10.50
2022-12-22T13:47:26.416Z,10.40
2022-12-22T13:50:18.673Z,10.40
2022-12-22T13:53:07.482Z,10.40
2022-12-22T13:55:55.844Z,10.50
2022-12-22T13:58:46.266Z,10.40
2022-12-22T14:01:34.568Z,10.40
2022-12-22T14:04:23.993Z,10.40
2022-12-22T14:07:12.316Z,10.30
2022-12-22T14:10:00.453Z,10.20
2022-12-22T14:12:48.387Z,10.20
2022-12-22T14:15:37.529Z,10.10
2022-12-22T14:18:26.433Z,10.00
2022-12-22T14:21:15.650Z,10.00
2022-12-22T14:24:04.676Z,9.90
2022-12-22T14:26:54.915Z,9.90
2022-12-22T14:29:43.043Z,9.90
2022-12-22T14:32:39.241Z,9.90
2022-12-22T14:35:28.851Z,9.90
2022-12-22T14:38:24.928Z,9.80
2022-12-22T14:41:37.167Z,9.80
2022-12-22T14:44:26.563Z,9.80
2022-12-22T14:47:17.489Z,9.70
2022-12-22T14:50:16.556Z,9.60
2022-12-22T14:53:05.362Z,9.70
2022-12-22T14:55:54.982Z,9.70
2022-12-22T14:58:43.953Z,9.80
2022-12-22T15:01:32.327Z,9.80
2022-12-22T15:04:20.825Z,9.70
2022-12-22T15:07:45.804Z,9.50
2022-12-22T15:10:25.812Z,9.40
2022-12-22T15:13:18.356Z,9.30
2022-12-22T15:16:06.441Z,9.20
2022-12-22T15:18:54.513Z,9.10
2022-12-22T15:21:42.341Z,9.00
2022-12-22T15:24:30.347Z,8.90
2022-12-22T15:27:18.226Z,8.90
2022-12-22T15:30:08.255Z,8.90
2022-12-22T15:32:56.258Z,8.80
2022-12-22T15:35:44.717Z,8.80
2022-12-22T15:38:38.539Z,8.90
2022-12-22T15:41:26.928Z,8.90
2022-12-22T15:44:15.159Z,8.90
2022-12-22T15:47:04.448Z,8.90
2022-12-22T15:49:52.344Z,8.90
2022-12-22T15:52:40.221Z,8.90
2022-12-22T15:55:28.045Z,8.80
2022-12-22T15:58:17.116Z,8.80
2022-12-22T16:01:06.411Z,8.80
2022-12-22T16:03:57.076Z,8.70
2022-12-22T16:06:45.194Z,8.70
2022-12-22T16:09:38.172Z,8.70
2022-12-22T16:12:26.409Z,8.70
2022-12-22T16:15:14.727Z,8.70
2022-12-22T16:18:02.818Z,8.70
2022-12-22T16:20:54.558Z,8.80
2022-12-22T16:23:42.765Z,8.70
2022-12-22T16:26:30.849Z,8.70
2022-12-22T16:29:18.734Z,8.80
2022-12-22T16:32:18.407Z,8.70
2022-12-22T16:35:14.933Z,8.70
2022-12-22T16:38:04.389Z,8.70
2022-12-22T16:40:53.972Z,8.80
2022-12-22T16:46:47.879Z,8.70
2022-12-22T16:49:36.024Z,8.70
2022-12-22T16:52:27.206Z,8.70
2022-12-22T16:55:17.666Z,8.70
2022-12-22T16:58:12.838Z,8.70
2022-12-22T17:01:01.774Z,8.70
2022-12-22T17:03:49.820Z,8.70
2022-12-22T17:06:37.983Z,8.70
2022-12-22T17:09:29.531Z,8.60
2022-12-22T17:12:19.944Z,8.60
2022-12-22T17:15:17.456Z,8.50
2022-12-22T17:18:07.694Z,8.50
2022-12-22T17:20:56.726Z,8.50
2022-12-22T17:23:45.848Z,8.50
2022-12-22T17:26:34.798Z,8.60
2022-12-22T17:29:25.615Z,8.60
2022-12-22T17:32:14.098Z,8.60
2022-12-22T17:35:02.505Z,8.60
2022-12-22T17:37:51.109Z,8.60
2022-12-22T17:40:39.225Z,8.60
2022-12-22T17:43:27.177Z,8.60
2022-12-22T17:46:17.375Z,8.60
2022-12-22T17:49:05.223Z,8.60
2022-12-22T17:51:53.302Z,8.60
2022-12-22T17:54:41.122Z,8.60
2022-12-22T17:57:31.061Z,8.60
2022-12-22T18:00:20.035Z,8.60
2022-12-22T18:03:12.766Z,8.50
2022-12-22T18:06:00.906Z,8.60
2022-12-22T18:08:48.849Z,8.60
2022-12-22T18:11:40.676Z,8.60
2022-12-22T18:14:33.387Z,8.60
2022-12-22T18:17:29.863Z,8.60
2022-12-22T18:20:23.219Z,8.60
2022-12-22T18:23:14.098Z,8.60
2022-12-22T18:26:02.183Z,8.60
2022-12-22T18:28:50.431Z,8.60
2022-12-22T18:31:40.343Z,8.70
2022-12-22T18:34:28.269Z,8.70
2022-12-22T18:37:18.147Z,8.70
2022-12-22T18:40:06.648Z,8.70
2022-12-22T18:42:56.235Z,8.70
2022-12-22T18:45:44.050Z,8.70
2022-12-22T18:48:31.849Z,8.70
2022-12-22T18:51:22.615Z,8.70
2022-12-22T18:54:20.540Z,8.70
2022-12-22T18:57:12.640Z,8.70
2022-12-22T19:00:00.459Z,8.70
2022-12-22T19:02:49.987Z,8.70
2022-12-22T19:05:40.573Z,8.70
2022-12-22T19:08:31.268Z,8.70
2022-12-22T19:11:22.743Z,8.70
2022-12-22T19:14:16.937Z,8.70
2022-12-22T19:17:04.823Z,8.80
2022-12-22T19:19:52.700Z,8.80
2022-12-22T19:22:40.547Z,8.80
2022-12-22T19:25:30.058Z,8.80
2022-12-22T19:28:24.675Z,8.80
2022-12-22T19:31:17.458Z,8.80
2022-12-22T19:34:06.616Z,8.80
2022-12-22T19:36:56.060Z,8.80
2022-12-22T19:39:44.177Z,8.80
2022-12-22T19:42:32.329Z,8.90
2022-12-22T19:45:24.953Z,8.80
2022-12-22T19:48:17.045Z,8.90
2022-12-22T19:51:13.193Z,8.90
2022-12-22T19:54:08.320Z,8.90
2022-12-22T19:56:57.021Z,8.90
2022-12-22T19:59:47.071Z,8.90
2022-12-22T20:02:38.987Z,8.90
2022-12-22T20:05:29.101Z,9.00
2022-12-22T20:08:17.205Z,8.90
2022-12-22T20:11:07.447Z,8.90
2022-12-22T20:13:55.286Z,9.00
2022-12-22T20:16:43.202Z,9.00
2022-12-22T20:19:32.600Z,9.00
2022-12-22T20:22:22.035Z,9.00
2022-12-22T20:25:14.391Z,9.00
2022-12-22T20:28:02.293Z,9.00
2022-12-22T20:30:50.573Z,9.00
2022-12-22T20:33:40.989Z,9.00
2022-12-22T20:36:32.539Z,9.10
2022-12-22T20:39:21.387Z,9.00
2022-12-22T20:42:19.423Z,9.10
2022-12-22T20:45:07.382Z,9.10
2022-12-22T20:47:55.430Z,9.00
2022-12-22T20:50:43.618Z,9.00
2022-12-22T20:53:33.143Z,9.00
2022-12-22T20:56:22.637Z,9.10
2022-12-22T20:59:13.868Z,9.10
2022-12-22T21:02:04.420Z,9.10
2022-12-22T21:04:52.406Z,9.10
2022-12-22T21:07:41.532Z,9.10
2022-12-22T21:10:30.955Z,9.10
2022-12-22T21:13:19.917Z,9.10
2022-12-22T21:16:11.868Z,9.10
2022-12-22T21:18:59.766Z,9.10
2022-12-22T21:21:47.757Z,9.10
2022-12-22T21:24:36.775Z,9.10
2022-12-22T21:27:26.170Z,9.20
2022-12-22T21:30:18.097Z,9.10
2022-12-22T21:33:06.383Z,9.00
2022-12-22T21:35:54.940Z,9.10
2022-12-22T21:38:44.817Z,9.10
2022-12-22T21:41:53.751Z,9.10
2022-12-22T21:44:44.616Z,9.10
2022-12-22T21:47:32.424Z,9.10
2022-12-22T21:50:21.787Z,9.20
2022-12-22T21:53:09.947Z,9.20
2022-12-22T21:55:58.021Z,9.20
2022-12-22T21:58:48.922Z,9.20
2022-12-22T22:01:38.623Z,9.20
2022-12-22T22:04:26.496Z,9.20
2022-12-22T22:07:14.791Z,9.20
2022-12-22T22:10:02.644Z,9.20
2022-12-22T22:12:50.452Z,9.20
2022-12-22T22:15:41.772Z,9.20
2022-12-22T22:18:30.952Z,9.20
2022-12-22T22:21:18.919Z,9.30
2022-12-22T22:24:06.992Z,9.20
2022-12-22T22:26:56.482Z,9.20
2022-12-22T22:29:44.728Z,9.20
2022-12-22T22:32:32.577Z,9.30
2022-12-22T22:35:22.133Z,9.30
2022-12-22T22:38:11.692Z,9.30
2022-12-22T22:40:59.639Z,9.30
2022-12-22T22:43:47.434Z,9.30
2022-12-22T22:46:35.333Z,9.30
2022-12-22T22:49:28.251Z,9.30
2022-12-22T22:52:17.902Z,9.30
2022-12-22T22:55:06.063Z,9.30
2022-12-22T22:57:53.850Z,9.30
2022-12-22T23:00:41.712Z,9.30
2022-12-22T23:03:31.186Z,9.30
2022-12-22T23:06:20.210Z,9.40
2022-12-22T23:09:09.755Z,9.30
2022-12-22T23:11:57.688Z,9.30
2022-12-22T23:14:45.543Z,9.30
2022-12-22T23:17:33.769Z,9.30
2022-12-22T23:20:21.710Z,9.30
2022-12-22T23:23:09.553Z,9.30
2022-12-22T23:25:58.830Z,9.30
2022-12-22T23:28:46.671Z,9.40
2022-12-22T23:31:35.065Z,9.30
2022-12-22T23:34:23.031Z,9.30
2022-12-22T23:37:17.186Z,9.30
2022-12-22T23:40:41.987Z,9.30
2022-12-22T23:43:17.249Z,9.40
2022-12-22T23:46:06.598Z,9.30
2022-12-22T23:48:55.287Z,9.30
2022-12-22T23:51:43.226Z,9.30
2022-12-22T23:54:31.100Z,9.30
2022-12-22T23:57:19.032Z,9.40
